Time;durP1;ratioP1;P1;durP2;ratioP2;P2;SDS_P1;SDS_P2;PMS_P1;PMS_P2;Temp;Humidity;BMP_temperature;BMP_pressure;BME280_temperature;BME280_humidity;BME280_pressure;Samples;Min_cycle;Max_cycle;Signal;HPM_P1;HPM_P2
2023/05/16 00:01:56;;;;;;;4.07;1.92;;;10.30;99.90;;;;;;5067547;28;20490;-60
2023/05/16 00:04:22;;;;;;;3.97;2.20;;;10.30;99.90;;;;;;5062632;28;20029;-59
2023/05/16 00:06:48;;;;;;;4.75;1.80;;;10.20;99.90;;;;;;5064780;28;20179;-60
2023/05/16 00:09:13;;;;;;;4.93;2.00;;;10.30;99.90;;;;;;5063364;28;20560;-59
2023/05/16 00:11:41;;;;;;;8.43;1.80;;;10.30;99.90;;;;;;5064809;28;20560;-60
2023/05/16 00:14:07;;;;;;;3.40;2.08;;;10.30;99.90;;;;;;5063705;28;20401;-58
2023/05/16 00:16:35;;;;;;;2.90;2.22;;;10.30;99.90;;;;;;5060261;28;20028;-57
2023/05/16 00:19:01;;;;;;;6.40;2.20;;;10.30;99.90;;;;;;5069325;28;20585;-56
2023/05/16 00:21:27;;;;;;;4.30;3.13;;;10.30;99.90;;;;;;5063175;28;20100;-56
2023/05/16 00:23:52;;;;;;;3.47;2.00;;;10.30;99.90;;;;;;5062530;28;20021;-55
2023/05/16 00:26:18;;;;;;;8.02;2.20;;;10.30;99.90;;;;;;5043785;28;20024;-59
2023/05/16 00:28:44;;;;;;;2.65;1.95;;;10.30;99.90;;;;;;5060588;28;20041;-59
2023/05/16 00:31:09;;;;;;;2.55;2.30;;;10.30;99.90;;;;;;5067283;28;20040;-59
2023/05/16 00:33:35;;;;;;;3.08;1.98;;;10.30;99.90;;;;;;5060966;28;20043;-56
2023/05/16 00:36:01;;;;;;;2.20;2.00;;;10.20;99.90;;;;;;5059680;28;20033;-59
2023/05/16 00:38:26;;;;;;;4.97;2.42;;;10.20;99.90;;;;;;5048470;28;20085;-59
2023/05/16 00:40:52;;;;;;;3.42;2.05;;;10.20;99.90;;;;;;5050814;28;20028;-60
2023/05/16 00:43:17;;;;;;;3.17;2.13;;;10.20;99.90;;;;;;5067944;28;20024;-60
2023/05/16 00:45:44;;;;;;;4.53;2.30;;;10.20;99.90;;;;;;5058934;28;20021;-59
2023/05/16 00:48:12;;;;;;;5.40;2.00;;;10.20;99.90;;;;;;5042137;28;20695;-60
2023/05/16 00:50:37;;;;;;;4.03;2.10;;;10.30;99.90;;;;;;5067635;28;20107;-60
2023/05/16 00:53:03;;;;;;;3.88;1.92;;;10.20;99.90;;;;;;5068603;28;20023;-60
2023/05/16 00:55:30;;;;;;;3.30;2.30;;;10.30;99.90;;;;;;5054815;28;20017;-60
2023/05/16 00:57:57;;;;;;;4.57;2.58;;;10.40;99.90;;;;;;5067205;28;20207;-58
2023/05/16 01:00:23;;;;;;;2.75;2.20;;;10.30;99.90;;;;;;5053691;28;20044;-59
2023/05/16 01:02:52;;;;;;;4.88;1.85;;;10.30;99.90;;;;;;5065997;28;20059;-59
2023/05/16 01:05:20;;;;;;;3.17;2.50;;;10.40;99.90;;;;;;5065564;28;20035;-60
2023/05/16 01:07:46;;;;;;;3.00;2.28;;;10.40;99.90;;;;;;5065657;28;20025;-60
2023/05/16 01:10:12;;;;;;;2.28;2.00;;;10.40;99.90;;;;;;5068275;28;20071;-60
2023/05/16 01:13:09;;;;;;;3.20;2.35;;;10.40;99.90;;;;;;5068015;28;20046;-60
2023/05/16 01:15:49;;;;;;;;;;;10.40;99.90;;;;;;5058595;28;20028;-57
2023/05/16 01:18:22;;;;;;;4.55;2.17;;;10.50;99.90;;;;;;5067312;28;19988;-61
2023/05/16 01:21:08;;;;;;;2.78;1.85;;;10.50;99.90;;;;;;5061976;28;20226;-59
2023/05/16 01:23:46;;;;;;;5.85;2.22;;;10.50;99.90;;;;;;5064660;28;20601;-60
2023/05/16 01:26:22;;;;;;;2.42;1.83;;;10.50;99.90;;;;;;5045160;28;20112;-60
2023/05/16 01:28:49;;;;;;;5.45;2.40;;;10.50;99.90;;;;;;5062109;28;20018;-60
2023/05/16 01:31:15;;;;;;;2.55;2.03;;;10.50;99.90;;;;;;5059317;28;20407;-58
2023/05/16 01:33:41;;;;;;;5.93;2.85;;;10.50;99.90;;;;;;5063907;28;20021;-59
2023/05/16 01:36:34;;;;;;;4.47;2.47;;;10.50;99.90;;;;;;5067244;28;20139;-60
2023/05/16 01:39:27;;;;;;;3.65;2.33;;;10.50;99.90;;;;;;5058163;28;20024;-59
2023/05/16 01:41:56;;;;;;;3.90;2.50;;;10.50;99.90;;;;;;5060636;28;20487;-59
2023/05/16 01:44:27;;;;;;;4.43;2.72;;;10.50;99.90;;;;;;5041517;28;20035;-59
2023/05/16 01:46:58;;;;;;;4.32;2.72;;;10.50;99.90;;;;;;5054361;28;20133;-59
2023/05/16 01:49:30;;;;;;;4.45;2.50;;;10.50;99.90;;;;;;5064840;28;20028;-54
2023/05/16 01:52:00;;;;;;;10.48;2.30;;;10.40;99.90;;;;;;5063561;28;20045;-55
2023/05/16 01:54:31;;;;;;;5.78;1.92;;;10.40;99.90;;;;;;5043791;28;20116;-61
2023/05/16 01:56:57;;;;;;;4.47;2.10;;;10.30;99.90;;;;;;5058959;28;20116;-60
2023/05/16 01:59:23;;;;;;;6.60;2.42;;;10.30;99.90;;;;;;5057147;28;20025;-59
2023/05/16 02:01:53;;;;;;;5.78;2.05;;;10.30;99.90;;;;;;5036530;28;20055;-57
2023/05/16 02:04:18;;;;;;;8.13;2.08;;;10.30;99.90;;;;;;5086066;22;20049;-52
2023/05/16 02:06:44;;;;;;;6.13;1.55;;;10.30;99.90;;;;;;5054503;28;20016;-53
2023/05/16 02:09:10;;;;;;;6.38;1.85;;;10.30;99.90;;;;;;5057454;28;20032;-53
2023/05/16 02:11:36;;;;;;;5.13;2.13;;;10.20;99.90;;;;;;5060997;28;20025;-52
2023/05/16 02:14:02;;;;;;;5.15;1.25;;;10.30;99.90;;;;;;5057434;28;20029;-52
2023/05/16 02:16:30;;;;;;;7.07;1.50;;;10.20;99.90;;;;;;5052973;28;20028;-54
2023/05/16 02:18:55;;;;;;;5.88;1.75;;;10.20;99.90;;;;;;5059261;28;20032;-52
2023/05/16 02:21:21;;;;;;;7.50;1.92;;;10.20;99.90;;;;;;5046624;28;20037;-52
2023/05/16 02:23:46;;;;;;;10.60;2.70;;;10.20;99.90;;;;;;5040451;28;20013;-50
2023/05/16 02:26:12;;;;;;;5.68;1.95;;;10.20;99.90;;;;;;5060389;28;20406;-56
2023/05/16 02:28:38;;;;;;;5.28;1.60;;;10.20;99.90;;;;;;5060054;28;20024;-52
2023/05/16 02:31:03;;;;;;;4.35;1.92;;;10.20;99.90;;;;;;5050821;28;20029;-51
2023/05/16 02:33:29;;;;;;;9.52;2.33;;;10.20;99.90;;;;;;5058679;28;20066;-50
2023/05/16 02:35:55;;;;;;;6.53;2.13;;;10.10;99.90;;;;;;5056183;28;20024;-54
2023/05/16 02:38:20;;;;;;;7.35;2.38;;;10.10;99.90;;;;;;5057570;28;20077;-51
2023/05/16 02:40:47;;;;;;;7.00;1.83;;;10.10;99.90;;;;;;5058033;28;20048;-52
2023/05/16 02:43:13;;;;;;;9.80;2.08;;;10.10;99.90;;;;;;5052416;28;20197;-51
2023/05/16 02:45:38;;;;;;;7.60;1.98;;;10.10;99.90;;;;;;5061934;28;20095;-51
2023/05/16 02:48:04;;;;;;;5.25;1.92;;;10.10;99.90;;;;;;5054641;28;20602;-50
2023/05/16 02:50:30;;;;;;;8.05;2.17;;;10.10;99.90;;;;;;5040500;28;20704;-50
2023/05/16 02:52:58;;;;;;;8.68;2.15;;;10.10;99.90;;;;;;5054410;28;20025;-55
2023/05/16 02:55:27;;;;;;;5.80;1.60;;;10.10;99.90;;;;;;5055999;28;20431;-53
2023/05/16 02:57:53;;;;;;;4.72;1.55;;;10.10;99.90;;;;;;5049213;28;20029;-54
2023/05/16 03:00:19;;;;;;;5.60;2.28;;;10.10;99.90;;;;;;5052954;28;20087;-54
2023/05/16 03:02:45;;;;;;;5.22;1.98;;;10.00;99.90;;;;;;5044487;28;20024;-52
2023/05/16 03:05:11;;;;;;;6.63;2.20;;;10.10;99.90;;;;;;5053588;28;20133;-54
2023/05/16 03:07:37;;;;;;;11.68;2.40;;;10.00;99.90;;;;;;5037513;28;20475;-53
2023/05/16 03:10:03;;;;;;;3.95;1.40;;;10.10;99.90;;;;;;5058374;28;20029;-54
2023/05/16 03:12:29;;;;;;;7.93;1.67;;;10.10;99.90;;;;;;5048050;28;20085;-54
2023/05/16 03:14:54;;;;;;;9.70;2.65;;;10.10;99.90;;;;;;5050820;28;20040;-52
2023/05/16 03:17:20;;;;;;;4.80;2.10;;;10.10;99.90;;;;;;5048463;28;20048;-53
2023/05/16 03:19:46;;;;;;;7.53;2.17;;;10.00;99.90;;;;;;5056187;28;20040;-53
2023/05/16 03:22:12;;;;;;;11.60;2.65;;;10.00;99.90;;;;;;5057324;28;20025;-54
2023/05/16 03:24:37;;;;;;;9.07;2.13;;;10.00;99.90;;;;;;5057554;28;20031;-53
2023/05/16 03:27:03;;;;;;;17.52;2.78;;;10.00;99.90;;;;;;5050588;28;20028;-53
2023/05/16 03:29:29;;;;;;;11.73;2.65;;;10.00;99.90;;;;;;5051817;28;20066;-51
2023/05/16 03:31:55;;;;;;;8.75;2.88;;;10.00;99.90;;;;;;5051524;28;20044;-50
2023/05/16 03:34:21;;;;;;;12.23;2.33;;;9.90;99.90;;;;;;5052420;28;20049;-49
2023/05/16 03:36:48;;;;;;;9.02;2.20;;;9.90;99.90;;;;;;5050987;28;20116;-50
2023/05/16 03:39:15;;;;;;;5.43;2.00;;;9.90;99.90;;;;;;5058569;28;20017;-52
2023/05/16 03:41:41;;;;;;;6.72;2.03;;;9.80;99.90;;;;;;5057540;28;20017;-50
2023/05/16 03:44:06;;;;;;;8.88;3.10;;;9.80;99.90;;;;;;5056157;28;20025;-51
2023/05/16 03:46:32;;;;;;;12.85;3.17;;;9.80;99.90;;;;;;5056739;28;20103;-54
2023/05/16 03:48:57;;;;;;;8.32;2.30;;;9.80;99.90;;;;;;5056351;28;20074;-50
2023/05/16 03:51:23;;;;;;;10.27;2.38;;;9.80;99.90;;;;;;5055365;28;20479;-53
2023/05/16 03:53:49;;;;;;;9.60;2.45;;;9.80;99.90;;;;;;5056938;28;20020;-53
2023/05/16 03:56:14;;;;;;;8.57;2.55;;;9.80;99.90;;;;;;5056011;28;20029;-51
2023/05/16 03:58:40;;;;;;;9.02;2.17;;;9.80;99.90;;;;;;5056342;28;20020;-51
2023/05/16 04:01:05;;;;;;;11.05;2.40;;;9.80;99.90;;;;;;5056543;28;20375;-53
2023/05/16 04:03:32;;;;;;;8.95;2.33;;;9.80;99.90;;;;;;5055962;28;20067;-50
2023/05/16 04:05:59;;;;;;;6.20;2.83;;;9.80;99.90;;;;;;5057023;28;20388;-51
2023/05/16 04:08:24;;;;;;;10.27;2.25;;;9.80;99.90;;;;;;5035415;28;20029;-50
2023/05/16 04:10:50;;;;;;;11.60;1.92;;;9.80;99.90;;;;;;5050875;28;20482;-50
2023/05/16 04:13:16;;;;;;;9.93;2.35;;;9.80;99.90;;;;;;5054041;28;20035;-54
2023/05/16 04:15:41;;;;;;;10.73;2.97;;;9.80;99.90;;;;;;5054757;28;20029;-51
2023/05/16 04:18:08;;;;;;;7.45;1.90;;;9.80;99.90;;;;;;5055876;28;20113;-55
2023/05/16 04:20:34;;;;;;;9.30;1.70;;;9.80;99.90;;;;;;5056043;28;20046;-51
2023/05/16 04:23:00;;;;;;;10.82;2.88;;;9.80;99.90;;;;;;5054072;28;20496;-50
2023/05/16 04:25:25;;;;;;;15.70;2.45;;;9.70;99.90;;;;;;5054106;28;20039;-53
2023/05/16 04:27:51;;;;;;;8.73;2.45;;;9.80;99.90;;;;;;5050960;28;20434;-55
2023/05/16 04:30:17;;;;;;;9.07;1.90;;;9.70;99.90;;;;;;5053850;28;20057;-56
2023/05/16 04:32:42;;;;;;;14.38;2.92;;;9.70;99.90;;;;;;5041522;28;20093;-52
2023/05/16 04:35:08;;;;;;;11.52;1.95;;;9.80;99.90;;;;;;5055195;28;20033;-51
2023/05/16 04:37:34;;;;;;;8.90;2.28;;;9.70;99.90;;;;;;5052030;28;20359;-51
2023/05/16 04:40:00;;;;;;;8.07;2.22;;;9.80;99.90;;;;;;5061418;28;20565;-51
2023/05/16 04:42:26;;;;;;;9.43;2.20;;;9.80;99.90;;;;;;5041740;28;20074;-50
2023/05/16 04:44:52;;;;;;;6.78;1.60;;;9.70;99.90;;;;;;5061167;28;20482;-55
2023/05/16 04:47:17;;;;;;;9.57;2.92;;;9.80;99.90;;;;;;5049409;28;20546;-53
2023/05/16 04:49:43;;;;;;;11.23;2.42;;;9.70;99.90;;;;;;5060149;28;20386;-52
2023/05/16 04:52:10;;;;;;;8.90;1.85;;;9.80;99.90;;;;;;5060029;28;20466;-51
2023/05/16 04:54:38;;;;;;;8.98;2.08;;;9.70;99.90;;;;;;5056363;28;20074;-50
2023/05/16 04:57:03;;;;;;;7.50;1.88;;;9.70;99.90;;;;;;5058495;28;20290;-53
2023/05/16 04:59:29;;;;;;;12.65;2.08;;;9.70;99.90;;;;;;5058510;28;20044;-52
2023/05/16 05:01:54;;;;;;;8.18;2.28;;;9.80;99.90;;;;;;5050900;28;20352;-54
2023/05/16 05:04:21;;;;;;;7.10;1.83;;;9.70;99.90;;;;;;5052021;28;20071;-52
2023/05/16 05:06:47;;;;;;;12.75;1.80;;;9.70;99.90;;;;;;5056430;28;20027;-49
2023/05/16 05:09:12;;;;;;;15.40;2.40;;;9.70;99.90;;;;;;5029309;28;20026;-51
2023/05/16 05:11:38;;;;;;;8.27;2.25;;;9.60;99.90;;;;;;5056350;28;20162;-51
2023/05/16 05:14:03;;;;;;;8.32;1.60;;;9.60;99.90;;;;;;5058968;28;20028;-51
2023/05/16 05:16:29;;;;;;;11.15;2.10;;;9.70;99.90;;;;;;5057281;28;20052;-54
2023/05/16 05:18:55;;;;;;;8.82;1.98;;;9.60;99.90;;;;;;5062488;28;20062;-50
2023/05/16 05:21:22;;;;;;;7.22;1.70;;;9.70;99.90;;;;;;5056425;28;20024;-51
2023/05/16 05:23:48;;;;;;;6.80;1.90;;;9.70;99.90;;;;;;5058910;28;20078;-52
2023/05/16 05:26:14;;;;;;;10.40;2.55;;;9.70;99.90;;;;;;5059259;28;20446;-51
2023/05/16 05:28:40;;;;;;;7.63;1.60;;;9.70;99.90;;;;;;5055886;28;20060;-55
2023/05/16 05:31:06;;;;;;;7.15;1.75;;;9.70;99.90;;;;;;5061284;28;20024;-52
2023/05/16 05:33:32;;;;;;;11.25;1.88;;;9.80;99.90;;;;;;5058217;28;20459;-50
2023/05/16 05:35:58;;;;;;;8.20;1.58;;;9.80;99.90;;;;;;5051447;28;20188;-51
2023/05/16 05:38:24;;;;;;;6.70;1.63;;;9.80;99.90;;;;;;5046753;28;20103;-51
2023/05/16 05:40:50;;;;;;;8.85;2.72;;;9.90;99.90;;;;;;5053907;28;20021;-55
2023/05/16 05:43:15;;;;;;;7.05;1.98;;;10.00;99.90;;;;;;5058711;28;20197;-52
2023/05/16 05:45:41;;;;;;;6.28;1.88;;;10.20;99.90;;;;;;5043553;28;20387;-52
2023/05/16 05:48:07;;;;;;;7.25;1.63;;;10.20;99.90;;;;;;5060867;28;20028;-55
2023/05/16 05:50:33;;;;;;;6.50;2.17;;;10.20;99.90;;;;;;5049878;28;20075;-54
2023/05/16 05:52:58;;;;;;;8.70;1.98;;;10.20;99.90;;;;;;5055747;28;20032;-50
2023/05/16 05:55:25;;;;;;;9.18;1.58;;;10.20;99.90;;;;;;5060988;28;20046;-52
2023/05/16 05:57:51;;;;;;;7.55;1.98;;;10.20;99.90;;;;;;5053188;28;20037;-52
2023/05/16 06:00:16;;;;;;;11.25;2.20;;;10.20;99.90;;;;;;5057692;28;20044;-50
2023/05/16 06:02:42;;;;;;;9.00;2.40;;;10.20;99.90;;;;;;5033489;28;20504;-50
2023/05/16 06:05:08;;;;;;;7.28;1.88;;;10.30;99.90;;;;;;5049510;28;20043;-50
2023/05/16 06:07:33;;;;;;;5.57;1.83;;;10.40;99.90;;;;;;5045134;28;20553;-51
2023/05/16 06:10:03;;;;;;;7.97;1.70;;;10.50;99.90;;;;;;5052344;28;20028;-51
2023/05/16 06:12:29;;;;;;;7.07;1.95;;;10.50;99.90;;;;;;5056874;28;20025;-55
2023/05/16 06:14:55;;;;;;;7.30;1.65;;;10.60;99.90;;;;;;5054161;28;20402;-51
2023/05/16 06:17:21;;;;;;;4.00;1.60;;;10.80;99.90;;;;;;5061036;28;20020;-54
2023/05/16 06:19:46;;;;;;;3.28;1.15;;;11.00;99.90;;;;;;5040828;28;20029;-50
2023/05/16 06:22:12;;;;;;;7.40;1.80;;;11.20;99.90;;;;;;5053256;28;20072;-50
2023/05/16 06:24:38;;;;;;;6.72;2.15;;;11.20;99.90;;;;;;5056257;28;20032;-53
2023/05/16 06:27:03;;;;;;;6.38;1.60;;;11.30;99.90;;;;;;5059922;28;20047;-50
2023/05/16 06:29:29;;;;;;;14.07;1.85;;;11.30;99.90;;;;;;5049796;28;20487;-50
2023/05/16 06:31:54;;;;;;;9.68;1.42;;;11.20;99.90;;;;;;5055583;28;20032;-52
2023/05/16 06:34:26;;;;;;;7.40;1.50;;;11.20;99.90;;;;;;5060237;28;20054;-51
2023/05/16 06:36:52;;;;;;;14.05;1.63;;;11.20;99.90;;;;;;5050732;28;20064;-52
2023/05/16 06:39:17;;;;;;;14.23;2.13;;;11.10;99.90;;;;;;5052995;28;20468;-53
2023/05/16 06:41:43;;;;;;;7.13;1.25;;;11.20;99.90;;;;;;5058987;28;20036;-52
2023/05/16 06:44:08;;;;;;;5.65;1.63;;;11.40;99.90;;;;;;5057589;28;20519;-51
2023/05/16 06:46:34;;;;;;;8.77;1.05;;;11.50;99.90;;;;;;5055542;28;20040;-52
2023/05/16 06:48:59;;;;;;;5.82;1.35;;;11.40;99.90;;;;;;5063154;28;20024;-50
2023/05/16 06:51:25;;;;;;;12.07;1.40;;;11.30;99.90;;;;;;5054598;28;20036;-51
2023/05/16 06:53:51;;;;;;;10.40;2.58;;;11.20;99.90;;;;;;5057142;28;20499;-50
2023/05/16 06:56:16;;;;;;;6.95;1.67;;;11.00;99.90;;;;;;5052351;28;20572;-55
2023/05/16 06:58:42;;;;;;;10.68;2.13;;;11.00;99.90;;;;;;5045647;28;20036;-53
2023/05/16 07:01:07;;;;;;;9.85;1.60;;;11.00;99.90;;;;;;5058187;28;20038;-51
2023/05/16 07:03:33;;;;;;;6.47;1.30;;;11.10;99.90;;;;;;5049829;28;20060;-53
2023/05/16 07:05:58;;;;;;;6.68;1.98;;;11.10;99.90;;;;;;5059034;28;20041;-51
2023/05/16 07:08:24;;;;;;;9.10;2.47;;;11.10;99.90;;;;;;5054093;28;20400;-52
2023/05/16 07:10:50;;;;;;;7.93;1.75;;;11.00;99.90;;;;;;5061814;28;20059;-53
2023/05/16 07:13:16;;;;;;;6.90;1.63;;;11.00;99.90;;;;;;5053627;28;20029;-51
2023/05/16 07:15:41;;;;;;;6.90;1.60;;;11.10;99.90;;;;;;5056560;28;20017;-52
2023/05/16 07:18:07;;;;;;;9.25;1.50;;;11.00;99.90;;;;;;5038620;28;20024;-52
2023/05/16 07:20:32;;;;;;;3.35;1.40;;;11.10;99.90;;;;;;5054032;28;20116;-51
2023/05/16 07:22:58;;;;;;;9.35;1.50;;;11.40;99.90;;;;;;5053888;28;20028;-51
2023/05/16 07:25:25;;;;;;;6.50;1.60;;;11.60;99.90;;;;;;5054157;28;20021;-53
2023/05/16 07:27:50;;;;;;;7.07;2.22;;;12.10;99.90;;;;;;5061047;28;20017;-51
2023/05/16 07:30:16;;;;;;;11.38;1.48;;;12.30;99.90;;;;;;5053033;28;20039;-51
2023/05/16 07:32:42;;;;;;;10.45;2.05;;;12.20;99.90;;;;;;5043674;28;20082;-51
2023/05/16 07:35:08;;;;;;;7.45;1.30;;;12.10;99.90;;;;;;5057655;28;20029;-51
2023/05/16 07:37:35;;;;;;;7.53;2.25;;;12.00;99.90;;;;;;5048900;28;20033;-52
2023/05/16 07:40:00;;;;;;;7.53;1.30;;;11.90;99.90;;;;;;5059395;28;20143;-52
2023/05/16 07:42:26;;;;;;;4.35;1.13;;;12.20;99.90;;;;;;5029351;28;20112;-51
2023/05/16 07:44:51;;;;;;;5.78;1.10;;;12.50;99.90;;;;;;5043831;28;20154;-52
2023/05/16 07:47:17;;;;;;;7.65;1.48;;;12.80;99.90;;;;;;5038839;28;20048;-55
2023/05/16 07:49:42;;;;;;;5.53;1.65;;;13.10;99.90;;;;;;5055764;28;20029;-51
2023/05/16 07:52:08;;;;;;;2.65;1.30;;;13.40;99.90;;;;;;5053316;28;20433;-56
2023/05/16 07:54:34;;;;;;;5.28;1.10;;;13.40;99.90;;;;;;5055279;28;20032;-52
2023/05/16 07:57:00;;;;;;;3.60;0.85;;;13.20;98.10;;;;;;5056696;28;20012;-55
2023/05/16 07:59:27;;;;;;;7.88;1.35;;;13.40;99.40;;;;;;5056949;28;20033;-51
2023/05/16 08:01:53;;;;;;;5.53;1.33;;;13.70;97.40;;;;;;5056633;28;20534;-51
2023/05/16 08:04:19;;;;;;;5.78;1.77;;;13.50;96.40;;;;;;5079932;22;20049;-59
2023/05/16 08:06:45;;;;;;;1.40;0.65;;;13.60;97.10;;;;;;5053504;28;20021;-56
2023/05/16 08:09:10;;;;;;;4.55;1.38;;;13.90;96.90;;;;;;5053549;28;20382;-58
2023/05/16 08:11:38;;;;;;;8.35;1.58;;;14.30;96.30;;;;;;5054440;28;20036;-58
2023/05/16 08:14:04;;;;;;;3.30;1.40;;;14.40;94.70;;;;;;5053624;28;20093;-56
2023/05/16 08:16:30;;;;;;;3.28;0.90;;;14.10;93.70;;;;;;5056580;28;20116;-57
2023/05/16 08:18:55;;;;;;;4.72;1.15;;;14.30;95.20;;;;;;5065814;28;20044;-57
2023/05/16 08:21:21;;;;;;;5.80;1.50;;;14.70;95.70;;;;;;5068423;28;20027;-58
2023/05/16 08:23:46;;;;;;;11.15;1.23;;;15.00;95.60;;;;;;5066263;28;20035;-59
2023/05/16 08:26:12;;;;;;;7.03;1.33;;;15.20;94.10;;;;;;5060416;28;20027;-59
2023/05/16 08:28:37;;;;;;;5.80;1.23;;;15.40;94.10;;;;;;5063986;28;20023;-59
2023/05/16 08:31:03;;;;;;;3.53;1.00;;;15.50;93.80;;;;;;5060983;28;20037;-57
2023/05/16 08:33:29;;;;;;;5.18;1.20;;;15.20;91.80;;;;;;5060047;28;20112;-59
2023/05/16 08:35:57;;;;;;;5.13;0.80;;;15.20;92.40;;;;;;5063113;28;20490;-57
2023/05/16 08:38:23;;;;;;;5.82;1.52;;;15.10;91.80;;;;;;5068026;28;20047;-57
2023/05/16 08:40:48;;;;;;;4.65;1.02;;;15.30;92.60;;;;;;5060645;28;20474;-55
2023/05/16 08:43:14;;;;;;;5.20;1.15;;;15.30;91.50;;;;;;5062685;28;20021;-55
2023/05/16 08:45:40;;;;;;;4.43;1.15;;;14.90;90.70;;;;;;5064576;28;20024;-59
2023/05/16 08:48:06;;;;;;;2.17;0.85;;;14.20;91.60;;;;;;5067782;28;20433;-60
2023/05/16 08:50:32;;;;;;;5.13;1.05;;;14.30;92.50;;;;;;5064495;28;20041;-58
2023/05/16 08:53:05;;;;;;;4.78;1.05;;;14.50;91.80;;;;;;5067174;28;20117;-59
2023/05/16 08:55:30;;;;;;;3.72;1.15;;;14.70;93.40;;;;;;5057589;28;20040;-60
2023/05/16 08:57:56;;;;;;;6.82;1.23;;;14.90;92.20;;;;;;5066383;28;20035;-60
2023/05/16 09:00:23;;;;;;;6.43;1.60;;;15.10;92.60;;;;;;5061738;28;20068;-58
2023/05/16 09:02:49;;;;;;;3.05;1.08;;;15.00;92.60;;;;;;5065135;28;20069;-59
2023/05/16 09:05:15;;;;;;;6.55;1.38;;;14.90;93.50;;;;;;5067894;28;20032;-58
2023/05/16 09:07:42;;;;;;;6.10;1.20;;;14.70;93.10;;;;;;5063231;28;20032;-61
2023/05/16 09:10:09;;;;;;;4.13;1.80;;;14.30;94.00;;;;;;5067747;28;20028;-59
2023/05/16 09:12:35;;;;;;;3.42;0.98;;;14.00;93.80;;;;;;5062655;28;20029;-56
2023/05/16 09:15:05;;;;;;;2.65;0.60;;;13.90;91.90;;;;;;5063512;28;20031;-59
2023/05/16 09:17:43;;;;;;;6.78;0.70;;;14.00;92.80;;;;;;5059471;28;20024;-60
2023/05/16 09:20:19;;;;;;;3.00;1.13;;;14.30;93.60;;;;;;5063173;28;20021;-60
2023/05/16 09:22:58;;;;;;;5.10;1.20;;;14.60;93.30;;;;;;5066376;28;20021;-61
2023/05/16 09:25:27;;;;;;;7.35;1.20;;;14.80;92.60;;;;;;5060689;28;20048;-60
2023/05/16 09:27:54;;;;;;;3.30;0.93;;;14.90;93.00;;;;;;5064636;28;20103;-55
2023/05/16 09:30:25;;;;;;;7.22;1.50;;;14.90;93.20;;;;;;5061980;28;20040;-60
2023/05/16 09:32:52;;;;;;;4.93;1.10;;;14.80;93.90;;;;;;5065463;28;20516;-60
2023/05/16 09:35:22;;;;;;;7.63;1.55;;;15.10;94.30;;;;;;5060224;28;20032;-60
2023/05/16 09:37:50;;;;;;;3.08;1.35;;;15.40;93.10;;;;;;5065219;28;20025;-59
2023/05/16 09:40:22;;;;;;;6.05;1.30;;;15.20;92.50;;;;;;5058967;28;20111;-61
2023/05/16 09:43:04;;;;;;;7.55;1.73;;;15.10;91.00;;;;;;5065448;28;20047;-58
2023/05/16 09:45:31;;;;;;;4.82;1.25;;;15.10;92.00;;;;;;5065200;28;20617;-62
2023/05/16 09:48:14;;;;;;;5.80;2.05;;;15.20;92.10;;;;;;5061510;28;20304;-57
2023/05/16 09:50:45;;;;;;;3.30;0.88;;;15.40;91.30;;;;;;5064080;28;20123;-60
2023/05/16 09:53:12;;;;;;;4.97;1.20;;;15.60;91.40;;;;;;5067391;28;20225;-60
2023/05/16 09:55:38;;;;;;;4.13;1.27;;;15.60;90.90;;;;;;5062312;28;20038;-61
2023/05/16 09:58:03;;;;;;;5.45;1.23;;;15.80;90.60;;;;;;5066393;28;20028;-55
2023/05/16 10:00:31;;;;;;;6.43;1.58;;;15.70;90.40;;;;;;5057271;28;20048;-60
2023/05/16 10:02:57;;;;;;;5.85;0.90;;;15.10;90.40;;;;;;5066320;28;20025;-58
2023/05/16 10:05:26;;;;;;;2.40;0.63;;;14.90;90.60;;;;;;5060941;28;20536;-59
2023/05/16 10:07:56;;;;;;;3.55;1.30;;;14.90;90.60;;;;;;5063740;28;20025;-59
2023/05/16 10:10:22;;;;;;;2.33;0.98;;;14.80;89.40;;;;;;5060371;28;20181;-55
2023/05/16 10:12:50;;;;;;;6.55;1.00;;;14.80;89.30;;;;;;5055903;28;20021;-61
2023/05/16 10:15:16;;;;;;;2.13;0.80;;;14.80;90.40;;;;;;5043470;28;20094;-59
2023/05/16 10:17:44;;;;;;;3.60;0.70;;;14.90;90.40;;;;;;5059646;28;20020;-60
2023/05/16 10:20:11;;;;;;;4.20;0.90;;;14.80;88.70;;;;;;5057194;28;20244;-58
2023/05/16 10:22:41;;;;;;;5.00;1.42;;;14.60;90.50;;;;;;5052306;28;20037;-60
2023/05/16 10:25:28;;;;;;;3.92;1.45;;;14.20;90.90;;;;;;5061129;28;20109;-59
2023/05/16 10:27:54;;;;;;;4.93;1.45;;;14.20;92.30;;;;;;5062687;28;20020;-60
2023/05/16 10:30:20;;;;;;;5.40;1.30;;;14.30;93.20;;;;;;5045632;28;20123;-61
2023/05/16 10:32:46;;;;;;;5.10;1.38;;;14.40;93.90;;;;;;5065563;28;20048;-61
2023/05/16 10:35:12;;;;;;;1.48;1.02;;;14.60;93.50;;;;;;5061585;28;20086;-60
2023/05/16 10:37:39;;;;;;;4.43;0.98;;;14.80;92.20;;;;;;5065768;28;20089;-58
2023/05/16 10:40:06;;;;;;;3.33;1.10;;;14.90;91.40;;;;;;5058691;28;20034;-57
2023/05/16 10:42:32;;;;;;;3.67;1.15;;;15.00;92.10;;;;;;5066472;28;20073;-58
2023/05/16 10:45:17;;;;;;;3.33;1.08;;;15.00;91.00;;;;;;5064806;28;20074;-58
2023/05/16 10:47:55;;;;;;;5.20;1.10;;;14.90;89.50;;;;;;5060978;28;20020;-55
2023/05/16 10:50:50;;;;;;;6.00;1.10;;;14.70;89.70;;;;;;5064161;28;20031;-59
2023/05/16 10:53:34;;;;;;;4.65;1.35;;;14.40;90.10;;;;;;5043492;28;20190;-60
2023/05/16 10:56:02;;;;;;;3.83;0.77;;;14.00;89.50;;;;;;5062783;28;20071;-61
2023/05/16 10:58:34;;;;;;;5.80;1.08;;;13.80;89.10;;;;;;5062902;28;20411;-61
2023/05/16 11:01:19;;;;;;;4.72;0.88;;;13.80;92.70;;;;;;5063095;28;20044;-59
2023/05/16 11:04:03;;;;;;;5.65;1.40;;;13.80;92.40;;;;;;5058804;28;20033;-61
2023/05/16 11:06:32;;;;;;;8.10;1.63;;;13.70;94.30;;;;;;5061725;28;20035;-61
2023/05/16 11:09:10;;;;;;;6.75;1.33;;;13.60;93.20;;;;;;5063671;28;20020;-59
2023/05/16 11:11:45;;;;;;;5.40;1.63;;;13.60;93.60;;;;;;5061171;28;20116;-61
2023/05/16 11:14:32;;;;;;;5.67;1.80;;;13.70;94.00;;;;;;5057822;28;20510;-60
2023/05/16 11:17:20;;;;;;;5.88;1.33;;;13.80;93.60;;;;;;5060085;28;20522;-61
2023/05/16 11:19:58;;;;;;;5.00;1.17;;;13.80;95.20;;;;;;5059221;28;20561;-60
2023/05/16 11:22:31;;;;;;;4.15;1.73;;;14.00;93.60;;;;;;5061052;28;20016;-61
2023/05/16 11:25:00;;;;;;;5.93;1.30;;;14.00;93.50;;;;;;5055544;28;20490;-59
2023/05/16 11:27:28;;;;;;;9.52;1.25;;;14.00;93.20;;;;;;5054838;28;20542;-59
2023/05/16 11:29:58;;;;;;;3.20;1.00;;;14.00;93.70;;;;;;5065167;28;20185;-60
2023/05/16 11:32:24;;;;;;;2.92;1.25;;;14.20;93.90;;;;;;5062652;28;20040;-56
2023/05/16 11:34:51;;;;;;;4.85;1.23;;;14.30;94.20;;;;;;5056915;28;20025;-61
2023/05/16 11:37:18;;;;;;;1.88;0.60;;;14.40;93.60;;;;;;5058466;28;20028;-58
2023/05/16 11:39:44;;;;;;;3.78;0.80;;;14.50;91.10;;;;;;5060723;28;20025;-59
2023/05/16 11:42:12;;;;;;;2.65;0.90;;;14.50;89.60;;;;;;5063438;28;20031;-60
2023/05/16 11:44:39;;;;;;;4.32;1.10;;;14.30;90.00;;;;;;5046459;28;20063;-57
2023/05/16 11:47:05;;;;;;;4.22;1.10;;;14.10;89.60;;;;;;5061550;28;20382;-57
2023/05/16 11:49:30;;;;;;;9.40;2.33;;;14.00;91.00;;;;;;5062693;28;20020;-58
2023/05/16 11:51:56;;;;;;;6.18;1.35;;;13.80;91.50;;;;;;5064862;28;20112;-58
2023/05/16 11:54:23;;;;;;;4.20;1.15;;;13.70;93.40;;;;;;5063503;28;20339;-61
2023/05/16 11:56:50;;;;;;;4.75;0.70;;;13.80;93.40;;;;;;5066590;28;20272;-59
2023/05/16 11:59:16;;;;;;;3.70;0.70;;;14.00;93.30;;;;;;5061427;28;20048;-60
2023/05/16 12:01:42;;;;;;;3.53;0.70;;;14.10;93.70;;;;;;5068074;28;20028;-60
2023/05/16 12:04:12;;;;;;;3.65;1.10;;;14.20;93.30;;;;;;5064044;28;20031;-61
2023/05/16 12:06:39;;;;;;;3.42;0.60;;;14.40;92.00;;;;;;5066910;28;20058;-60
2023/05/16 12:09:12;;;;;;;2.22;0.95;;;14.40;92.10;;;;;;5063998;28;20227;-58
2023/05/16 12:11:39;;;;;;;2.05;1.05;;;14.40;90.20;;;;;;5065680;28;20067;-57
2023/05/16 12:14:06;;;;;;;8.88;1.30;;;14.40;90.30;;;;;;5062777;28;20186;-58
2023/05/16 12:16:33;;;;;;;2.75;1.10;;;14.30;91.10;;;;;;5062521;28;20467;-58
2023/05/16 12:19:01;;;;;;;3.80;0.90;;;14.20;92.30;;;;;;5068423;28;20482;-60
2023/05/16 12:21:27;;;;;;;5.88;1.55;;;14.30;93.00;;;;;;5051474;28;20050;-60
2023/05/16 12:23:56;;;;;;;4.03;0.77;;;14.40;92.70;;;;;;5066611;28;20315;-59
2023/05/16 12:26:30;;;;;;;2.97;0.93;;;14.20;93.00;;;;;;5045190;28;20029;-59
2023/05/16 12:29:02;;;;;;;2.85;0.90;;;14.20;93.50;;;;;;5048947;28;20432;-56
2023/05/16 12:31:31;;;;;;;4.05;1.05;;;14.10;93.40;;;;;;5044754;28;20293;-56
2023/05/16 12:33:57;;;;;;;6.93;1.30;;;14.10;94.30;;;;;;5064428;28;20097;-56
2023/05/16 12:36:25;;;;;;;3.60;0.60;;;14.20;95.20;;;;;;5061570;28;20191;-55
2023/05/16 12:38:51;;;;;;;6.30;1.40;;;14.20;94.60;;;;;;5066804;28;20017;-60
2023/05/16 12:41:21;;;;;;;4.75;1.13;;;14.20;94.20;;;;;;5063771;28;20029;-60
2023/05/16 12:43:50;;;;;;;8.95;1.23;;;14.10;95.80;;;;;;5057544;28;20165;-60
2023/05/16 12:46:18;;;;;;;6.05;0.75;;;14.20;95.90;;;;;;5058743;28;20474;-60
2023/05/16 12:48:46;;;;;;;5.18;1.23;;;14.20;96.30;;;;;;5064400;28;20035;-62
2023/05/16 12:51:15;;;;;;;3.53;0.95;;;13.90;95.80;;;;;;5064680;28;20036;-59